Time;durP1;ratioP1;P1;durP2;ratioP2;P2;SDS_P1;SDS_P2;PMS_P1;PMS_P2;Temp;Humidity;BMP_temperature;BMP_pressure;BME280_temperature;BME280_humidity;BME280_pressure;Samples;Min_cycle;Max_cycle;Signal;HPM_P1;HPM_P2
2022/11/02 00:01:20;;;;;;;0.57;0.57;;;17.30;99.90;;;;;;5091307;28;20200;-66
2022/11/02 00:04:09;;;;;;;0.73;0.73;;;17.20;99.90;;;;;;5091933;28;20290;-69
2022/11/02 00:06:57;;;;;;;2.15;1.95;;;17.20;99.90;;;;;;5091288;28;20238;-65
2022/11/02 00:09:46;;;;;;;0.57;0.50;;;17.20;99.90;;;;;;5091663;28;20196;-64
2022/11/02 00:12:34;;;;;;;0.40;0.40;;;17.20;99.90;;;;;;5092003;28;20204;-66
2022/11/02 00:15:25;;;;;;;2.67;1.85;;;17.20;99.90;;;;;;5091842;28;20200;-67
2022/11/02 00:18:14;;;;;;;1.60;1.50;;;17.20;99.90;;;;;;5091283;28;20207;-65
2022/11/02 00:21:04;;;;;;;0.40;0.40;;;17.20;99.90;;;;;;5091524;28;20275;-67
2022/11/02 00:23:53;;;;;;;0.40;0.40;;;17.20;99.90;;;;;;5091119;28;20748;-66
2022/11/02 00:26:42;;;;;;;1.00;1.00;;;17.10;99.90;;;;;;5091056;28;20685;-63
2022/11/02 00:29:30;;;;;;;0.40;0.40;;;17.10;99.90;;;;;;5091385;28;20571;-67
2022/11/02 00:32:21;;;;;;;0.40;0.40;;;17.10;99.90;;;;;;5091604;28;20204;-64
2022/11/02 00:35:10;;;;;;;0.50;0.50;;;17.10;99.90;;;;;;5091492;28;20204;-69
2022/11/02 00:37:57;;;;;;;0.95;0.95;;;17.10;99.90;;;;;;5090988;28;20578;-66
2022/11/02 00:40:45;;;;;;;0.50;0.50;;;17.10;99.90;;;;;;5090880;28;20200;-67
2022/11/02 00:43:35;;;;;;;0.40;0.40;;;17.00;99.90;;;;;;5091472;28;20676;-67
2022/11/02 00:46:23;;;;;;;0.65;0.65;;;17.10;99.90;;;;;;5091576;28;20218;-65
2022/11/02 00:49:11;;;;;;;0.40;0.40;;;17.00;99.90;;;;;;5091350;28;20204;-67
2022/11/02 00:51:59;;;;;;;0.55;0.55;;;17.00;99.90;;;;;;5090788;28;20204;-65
2022/11/02 00:54:47;;;;;;;0.40;0.40;;;17.00;99.90;;;;;;5091227;28;20200;-67
2022/11/02 00:57:35;;;;;;;1.50;1.50;;;17.00;99.90;;;;;;5091047;28;20506;-68
2022/11/02 01:00:24;;;;;;;1.20;1.20;;;17.00;99.90;;;;;;5090621;28;20204;-67
2022/11/02 01:03:12;;;;;;;0.40;0.40;;;17.00;99.90;;;;;;5091304;28;20676;-66
2022/11/02 01:06:07;;;;;;;0.40;0.40;;;17.00;99.90;;;;;;5095175;28;20228;-67
2022/11/02 01:08:55;;;;;;;1.00;1.00;;;17.00;99.90;;;;;;5094753;28;20676;-64
2022/11/02 01:11:44;;;;;;;1.35;1.30;;;17.00;99.90;;;;;;5095505;28;20206;-69
2022/11/02 01:14:32;;;;;;;0.40;0.40;;;17.00;99.90;;;;;;5095343;28;20664;-69
2022/11/02 01:17:21;;;;;;;2.63;2.38;;;17.00;99.90;;;;;;5095809;28;20223;-65
2022/11/02 01:20:10;;;;;;;0.55;0.55;;;17.00;99.90;;;;;;5094804;28;20198;-67
2022/11/02 01:22:58;;;;;;;0.40;0.40;;;17.00;99.90;;;;;;5094373;28;20204;-67
2022/11/02 01:25:46;;;;;;;14.27;1.80;;;16.90;99.90;;;;;;5094937;28;20212;-70
2022/11/02 01:28:35;;;;;;;1.10;1.10;;;16.90;99.90;;;;;;5095030;28;20196;-67
2022/11/02 01:31:23;;;;;;;0.50;0.50;;;16.90;99.90;;;;;;5094855;28;20204;-69
2022/11/02 01:34:12;;;;;;;0.40;0.40;;;16.90;99.90;;;;;;5094488;28;20302;-68
2022/11/02 01:37:00;;;;;;;0.40;0.40;;;16.90;99.90;;;;;;5094655;28;20219;-66
2022/11/02 01:39:48;;;;;;;0.40;0.40;;;16.90;99.90;;;;;;5094548;28;20283;-69
2022/11/02 01:42:36;;;;;;;0.40;0.40;;;16.90;99.90;;;;;;5094043;28;20574;-66
2022/11/02 01:45:24;;;;;;;0.40;0.40;;;16.90;99.90;;;;;;5094576;28;20224;-70
2022/11/02 01:48:12;;;;;;;0.80;0.80;;;16.90;99.90;;;;;;5093939;28;20203;-72
2022/11/02 01:51:06;;;;;;;0.63;0.63;;;16.90;99.90;;;;;;5094166;28;20192;-69
2022/11/02 01:53:57;;;;;;;0.73;0.73;;;16.90;99.90;;;;;;5094565;28;20203;-69
2022/11/02 01:56:50;;;;;;;0.40;0.40;;;16.90;99.90;;;;;;5094474;28;20217;-68
2022/11/02 01:59:45;;;;;;;0.40;0.40;;;16.90;99.90;;;;;;5094390;28;20204;-66
2022/11/02 02:02:38;;;;;;;0.40;0.40;;;16.90;99.90;;;;;;5094241;28;20583;-66
2022/11/02 02:05:26;;;;;;;0.60;0.60;;;16.80;99.90;;;;;;5093733;28;20321;-69
2022/11/02 02:08:19;;;;;;;0.40;0.40;;;16.80;99.90;;;;;;5094572;28;20215;-69
2022/11/02 02:11:24;;;;;;;0.40;0.40;;;16.80;99.90;;;;;;5093343;28;20196;-64
2022/11/02 02:14:15;;;;;;;0.45;0.45;;;16.80;99.90;;;;;;5093937;28;20204;-69
2022/11/02 02:17:23;;;;;;;0.40;0.40;;;16.80;99.90;;;;;;5093319;28;20232;-67
2022/11/02 02:20:19;;;;;;;0.73;0.73;;;16.80;99.90;;;;;;5093698;28;20768;-66
2022/11/02 02:23:43;;;;;;;0.52;0.52;;;16.80;99.90;;;;;;5093635;28;20196;-65
2022/11/02 02:26:54;;;;;;;0.40;0.40;;;16.80;99.90;;;;;;5070738;28;20228;-69
2022/11/02 02:30:00;;;;;;;0.40;0.40;;;16.80;99.90;;;;;;5093516;28;20206;-67
2022/11/02 02:32:56;;;;;;;0.40;0.40;;;16.80;99.90;;;;;;5092979;28;20214;-64
2022/11/02 02:35:49;;;;;;;0.50;0.50;;;16.80;99.90;;;;;;5093102;28;20277;-67
2022/11/02 02:38:45;;;;;;;0.30;0.30;;;16.80;99.90;;;;;;5093707;28;20195;-64
2022/11/02 02:41:38;;;;;;;0.40;0.40;;;16.80;99.90;;;;;;5093495;28;20557;-67
2022/11/02 02:44:31;;;;;;;0.40;0.40;;;16.80;99.90;;;;;;5092934;28;20196;-64
2022/11/02 02:47:26;;;;;;;0.40;0.40;;;16.80;99.90;;;;;;5093346;28;20227;-66
2022/11/02 02:50:18;;;;;;;0.88;0.88;;;16.80;99.90;;;;;;5093199;28;20275;-67
2022/11/02 02:53:07;;;;;;;0.40;0.40;;;16.70;99.90;;;;;;5092322;28;20226;-69
2022/11/02 02:55:58;;;;;;;0.57;0.57;;;16.70;99.90;;;;;;5092777;28;20224;-68
2022/11/02 02:58:52;;;;;;;0.40;0.40;;;16.70;99.90;;;;;;5093844;28;20202;-67
2022/11/02 03:01:42;;;;;;;0.40;0.40;;;16.70;99.90;;;;;;5092676;28;20227;-69
2022/11/02 03:04:31;;;;;;;0.40;0.40;;;16.70;99.90;;;;;;5093771;28;20200;-68
2022/11/02 03:07:24;;;;;;;0.40;0.40;;;16.70;99.90;;;;;;5091633;28;20303;-68
2022/11/02 03:10:22;;;;;;;0.40;0.40;;;16.70;99.90;;;;;;5092779;28;20210;-64
2022/11/02 03:13:20;;;;;;;1.05;0.95;;;16.80;99.90;;;;;;5092489;28;20200;-66
2022/11/02 03:16:17;;;;;;;0.30;0.30;;;16.70;99.90;;;;;;5092080;28;20220;-70
2022/11/02 03:19:17;;;;;;;0.40;0.40;;;16.70;99.90;;;;;;5093296;28;20196;-65
2022/11/02 03:22:14;;;;;;;0.40;0.40;;;16.80;99.90;;;;;;5092063;28;20283;-67
2022/11/02 03:25:10;;;;;;;0.40;0.40;;;16.70;99.90;;;;;;5093388;28;20621;-68
2022/11/02 03:28:09;;;;;;;0.40;0.40;;;16.70;99.90;;;;;;5092122;28;20196;-67
2022/11/02 03:31:06;;;;;;;0.40;0.40;;;16.70;99.90;;;;;;5091912;28;20203;-66
2022/11/02 03:33:59;;;;;;;0.40;0.40;;;16.70;99.90;;;;;;5093455;28;20203;-64
2022/11/02 03:36:50;;;;;;;0.40;0.40;;;16.70;99.90;;;;;;5091997;28;20342;-67
2022/11/02 03:39:44;;;;;;;0.40;0.40;;;16.70;99.90;;;;;;5091815;28;20204;-66
2022/11/02 03:42:34;;;;;;;0.30;0.30;;;16.70;99.90;;;;;;5091767;28;20199;-68
2022/11/02 03:45:26;;;;;;;0.40;0.40;;;16.70;99.90;;;;;;5091809;28;20196;-66
2022/11/02 03:48:16;;;;;;;0.40;0.40;;;16.70;99.90;;;;;;5091566;28;20200;-65
2022/11/02 03:51:08;;;;;;;0.40;0.40;;;16.60;99.90;;;;;;5091488;28;20200;-69
2022/11/02 03:54:02;;;;;;;0.60;0.60;;;16.60;99.90;;;;;;5092719;28;20275;-63
2022/11/02 03:56:56;;;;;;;0.40;0.40;;;16.60;99.90;;;;;;5091439;28;20297;-68
2022/11/02 03:59:44;;;;;;;0.40;0.40;;;16.60;99.90;;;;;;5091327;28;20207;-69
2022/11/02 04:02:35;;;;;;;0.40;0.40;;;16.60;99.90;;;;;;5092719;28;20204;-67
2022/11/02 04:05:28;;;;;;;0.40;0.40;;;16.60;99.90;;;;;;5091332;28;20200;-67
2022/11/02 04:08:23;;;;;;;0.30;0.30;;;16.60;99.90;;;;;;5091913;28;20192;-66
2022/11/02 04:20:32;;;;;;;0.40;0.40;;;16.60;99.90;;;;;;5074534;28;20702;-67
2022/11/02 04:26:27;;;;;;;0.60;0.60;;;16.60;99.90;;;;;;5091825;28;20215;-68
2022/11/02 04:29:15;;;;;;;0.40;0.40;;;16.60;99.90;;;;;;5091337;28;20208;-70
2022/11/02 04:32:04;;;;;;;0.40;0.40;;;16.60;99.90;;;;;;5091197;28;20192;-69
2022/11/02 04:34:51;;;;;;;0.40;0.40;;;16.60;99.90;;;;;;5090796;28;20671;-69
2022/11/02 04:40:46;;;;;;;0.40;0.40;;;16.60;99.90;;;;;;5091195;28;20192;-70
2022/11/02 04:43:34;;;;;;;0.40;0.40;;;16.60;99.90;;;;;;5092720;28;20583;-66
2022/11/02 04:46:24;;;;;;;0.40;0.40;;;16.50;99.90;;;;;;5090939;28;20226;-68
2022/11/02 04:49:13;;;;;;;0.40;0.40;;;16.60;99.90;;;;;;5091152;28;20191;-66
2022/11/02 04:52:01;;;;;;;0.40;0.40;;;16.60;99.90;;;;;;5090775;28;20279;-68
2022/11/02 04:54:49;;;;;;;0.40;0.40;;;16.50;99.90;;;;;;5090566;28;20202;-63
2022/11/02 04:57:37;;;;;;;0.40;0.40;;;16.50;99.90;;;;;;5091167;28;20216;-65
2022/11/02 05:00:25;;;;;;;0.40;0.40;;;16.50;99.90;;;;;;5090386;28;20199;-65
2022/11/02 05:03:13;;;;;;;1.33;1.33;;;16.50;99.90;;;;;;5091668;28;20199;-64
2022/11/02 05:06:03;;;;;;;1.27;1.02;;;16.50;99.90;;;;;;5090424;28;20302;-66
2022/11/02 05:08:51;;;;;;;0.40;0.40;;;16.50;99.90;;;;;;5091282;28;20303;-66
2022/11/02 05:11:39;;;;;;;0.40;0.40;;;16.50;99.90;;;;;;5091121;28;20206;-66
2022/11/02 05:14:27;;;;;;;0.88;0.85;;;16.50;99.90;;;;;;5090344;28;20196;-64
2022/11/02 05:17:16;;;;;;;0.50;0.50;;;16.50;99.90;;;;;;5091529;28;20696;-62
2022/11/02 05:20:04;;;;;;;0.40;0.40;;;16.50;99.90;;;;;;5090215;28;20694;-65
2022/11/02 05:22:54;;;;;;;0.40;0.40;;;16.50;99.90;;;;;;5091089;28;20279;-66
2022/11/02 05:25:42;;;;;;;0.40;0.40;;;16.50;99.90;;;;;;5089804;28;20673;-67
2022/11/02 05:28:31;;;;;;;1.63;1.52;;;16.50;99.90;;;;;;5091749;28;20220;-64
2022/11/02 05:31:19;;;;;;;0.65;0.65;;;16.50;99.90;;;;;;5089877;28;20200;-66
2022/11/02 05:34:08;;;;;;;0.40;0.40;;;16.50;99.90;;;;;;5090275;28;20196;-64
2022/11/02 05:36:56;;;;;;;1.48;1.38;;;16.50;99.90;;;;;;5091488;28;20223;-66
2022/11/02 05:39:45;;;;;;;0.40;0.40;;;16.40;99.90;;;;;;5089921;28;20265;-64
2022/11/02 05:42:37;;;;;;;0.40;0.40;;;16.40;99.90;;;;;;5091443;28;20200;-67
2022/11/02 05:45:25;;;;;;;0.40;0.40;;;16.40;99.90;;;;;;5090678;28;20211;-67
2022/11/02 05:48:13;;;;;;;0.75;0.75;;;16.50;99.90;;;;;;5090259;28;20224;-65
2022/11/02 05:51:03;;;;;;;0.40;0.40;;;16.40;99.90;;;;;;5093666;28;20192;-63
2022/11/02 05:53:51;;;;;;;0.50;0.50;;;16.40;99.90;;;;;;5093929;28;20203;-68
2022/11/02 05:56:40;;;;;;;0.40;0.40;;;16.40;99.90;;;;;;5094970;28;20222;-65
2022/11/02 05:59:28;;;;;;;0.40;0.40;;;16.40;99.90;;;;;;5093644;28;20673;-68
2022/11/02 06:02:16;;;;;;;0.40;0.40;;;16.40;99.90;;;;;;5094986;28;20669;-69
2022/11/02 06:05:09;;;;;;;0.60;0.60;;;16.40;99.90;;;;;;5093976;28;20795;-70
2022/11/02 06:08:00;;;;;;;0.40;0.40;;;16.40;99.90;;;;;;5094805;28;20216;-64
2022/11/02 06:10:48;;;;;;;0.40;0.40;;;16.40;99.90;;;;;;5093280;28;20230;-65
2022/11/02 06:13:38;;;;;;;0.40;0.40;;;16.40;99.90;;;;;;5093708;28;20211;-67
2022/11/02 06:16:26;;;;;;;0.40;0.40;;;16.40;99.90;;;;;;5094516;28;20541;-67
2022/11/02 06:19:14;;;;;;;0.40;0.40;;;16.40;99.90;;;;;;5093256;28;20206;-66
2022/11/02 06:22:07;;;;;;;0.40;0.40;;;16.40;99.90;;;;;;5094065;28;20204;-67
2022/11/02 06:24:55;;;;;;;0.40;0.40;;;16.50;99.90;;;;;;5093370;28;20200;-65
2022/11/02 06:27:51;;;;;;;0.40;0.40;;;16.40;99.90;;;;;;5094224;28;20230;-69
2022/11/02 06:30:42;;;;;;;0.40;0.40;;;16.50;99.90;;;;;;5092831;28;20228;-63
2022/11/02 06:33:30;;;;;;;0.40;0.40;;;16.50;99.90;;;;;;5093416;28;20200;-66
2022/11/02 06:36:18;;;;;;;1.35;1.25;;;16.50;99.90;;;;;;5094278;28;20599;-64
2022/11/02 06:39:06;;;;;;;1.58;1.48;;;16.50;99.90;;;;;;5093098;28;20681;-66
2022/11/02 06:41:54;;;;;;;0.40;0.40;;;16.50;99.90;;;;;;5094137;28;20196;-65
2022/11/02 06:44:43;;;;;;;0.40;0.40;;;16.50;99.90;;;;;;5092860;28;20712;-64
2022/11/02 06:47:33;;;;;;;0.40;0.40;;;16.40;99.90;;;;;;5093940;28;20604;-65
2022/11/02 06:50:23;;;;;;;0.40;0.40;;;16.50;99.90;;;;;;5092638;28;20326;-66
2022/11/02 06:53:11;;;;;;;0.40;0.40;;;16.50;99.90;;;;;;5092993;28;20200;-69
2022/11/02 06:56:00;;;;;;;0.40;0.40;;;16.50;99.90;;;;;;5093991;28;20292;-67
2022/11/02 06:58:48;;;;;;;0.40;0.40;;;16.50;99.90;;;;;;5092760;28;20241;-63
2022/11/02 07:01:36;;;;;;;0.43;0.43;;;16.50;99.90;;;;;;5087845;28;20714;-68
2022/11/02 07:04:25;;;;;;;2.15;1.95;;;16.50;99.90;;;;;;5092500;28;20203;-71
2022/11/02 07:07:14;;;;;;;0.40;0.40;;;16.50;99.90;;;;;;5086629;28;20253;-71
2022/11/02 07:10:03;;;;;;;0.40;0.40;;;16.50;99.90;;;;;;5089854;28;20301;-64
2022/11/02 07:12:53;;;;;;;0.40;0.40;;;16.70;99.90;;;;;;5088764;28;20202;-67
2022/11/02 07:15:41;;;;;;;0.40;0.40;;;17.00;99.90;;;;;;5092047;28;20212;-64
2022/11/02 07:18:29;;;;;;;0.40;0.40;;;17.00;99.90;;;;;;5093311;28;20196;-65
2022/11/02 07:21:18;;;;;;;0.40;0.40;;;17.00;99.90;;;;;;5092796;28;20264;-64
2022/11/02 07:24:12;;;;;;;0.40;0.40;;;16.90;99.90;;;;;;5092994;28;20210;-66
2022/11/02 07:27:00;;;;;;;0.40;0.40;;;16.80;99.90;;;;;;5074317;28;20223;-67
2022/11/02 07:29:48;;;;;;;0.40;0.40;;;16.80;99.90;;;;;;5073122;28;20201;-66
2022/11/02 07:32:40;;;;;;;0.40;0.40;;;16.80;99.90;;;;;;5073508;28;20242;-65
2022/11/02 07:35:28;;;;;;;0.40;0.40;;;16.70;99.90;;;;;;5072531;28;20228;-67
2022/11/02 07:38:17;;;;;;;0.40;0.40;;;16.80;99.90;;;;;;5073373;28;20207;-66
2022/11/02 07:41:06;;;;;;;0.40;0.40;;;16.80;99.90;;;;;;5073007;28;20275;-66
2022/11/02 07:43:54;;;;;;;0.40;0.40;;;16.90;99.90;;;;;;5091626;28;20287;-66
2022/11/02 07:46:42;;;;;;;0.40;0.40;;;16.90;99.90;;;;;;5091364;28;20659;-68
2022/11/02 07:49:30;;;;;;;0.40;0.40;;;16.90;99.90;;;;;;5091343;28;20806;-67
2022/11/02 07:52:18;;;;;;;0.40;0.40;;;16.90;99.90;;;;;;5091603;28;20207;-69
2022/11/02 07:55:08;;;;;;;0.40;0.40;;;17.00;99.90;;;;;;5091400;28;20204;-66
2022/11/02 07:57:58;;;;;;;0.40;0.40;;;17.00;99.90;;;;;;5091641;28;20326;-66
2022/11/02 08:00:46;;;;;;;0.40;0.40;;;17.00;99.90;;;;;;5091113;28;20200;-68
2022/11/02 08:03:34;;;;;;;0.40;0.40;;;17.00;99.90;;;;;;5091343;28;20200;-67
2022/11/02 08:06:22;;;;;;;0.40;0.40;;;17.00;99.90;;;;;;5091389;28;20362;-67
2022/11/02 08:09:11;;;;;;;0.35;0.35;;;17.00;99.90;;;;;;5091711;28;20216;-65
2022/11/02 08:12:00;;;;;;;5.97;1.52;;;17.00;99.90;;;;;;5091053;28;20200;-64
2022/11/02 08:14:48;;;;;;;0.40;0.40;;;17.00;99.90;;;;;;5091289;28;20200;-69
2022/11/02 08:17:36;;;;;;;0.40;0.40;;;17.10;99.90;;;;;;5091610;28;20721;-65
2022/11/02 08:20:24;;;;;;;0.40;0.40;;;17.10;99.90;;;;;;5090967;28;20202;-69
2022/11/02 08:23:13;;;;;;;0.40;0.40;;;17.10;99.90;;;;;;5091524;28;20275;-67
2022/11/02 08:26:01;;;;;;;0.40;0.40;;;17.10;99.90;;;;;;5091083;28;20261;-69
2022/11/02 08:28:51;;;;;;;0.40;0.40;;;17.10;99.90;;;;;;5090999;28;20215;-67
2022/11/02 08:31:39;;;;;;;0.40;0.40;;;17.10;99.90;;;;;;5090723;28;20325;-68
2022/11/02 08:34:27;;;;;;;0.40;0.40;;;17.10;99.90;;;;;;5090570;28;20202;-67
2022/11/02 08:37:15;;;;;;;0.40;0.40;;;17.20;99.90;;;;;;5089749;28;20300;-67
2022/11/02 08:40:03;;;;;;;0.40;0.40;;;17.20;99.90;;;;;;5090502;28;20561;-67
2022/11/02 08:42:56;;;;;;;0.40;0.40;;;17.30;99.90;;;;;;5089229;28;20215;-70
2022/11/02 08:45:45;;;;;;;0.40;0.40;;;17.90;99.90;;;;;;5090290;28;20203;-70
2022/11/02 08:48:53;;;;;;;0.40;0.40;;;17.90;99.90;;;;;;5091246;28;20223;-67
2022/11/02 08:51:42;;;;;;;1.15;1.15;;;18.30;99.90;;;;;;5087900;28;20330;-69
2022/11/02 08:54:30;;;;;;;0.63;0.63;;;18.50;99.90;;;;;;5084785;28;20192;-63
2022/11/02 08:57:18;;;;;;;0.40;0.40;;;18.60;99.90;;;;;;5090234;28;20322;-67
2022/11/02 09:00:08;;;;;;;0.40;0.40;;;18.70;99.90;;;;;;5091009;28;20280;-67
2022/11/02 09:03:02;;;;;;;0.40;0.40;;;18.90;99.90;;;;;;5090615;28;20676;-67
2022/11/02 09:05:55;;;;;;;0.40;0.40;;;19.20;99.90;;;;;;5089246;28;20195;-68
2022/11/02 09:08:44;;;;;;;0.40;0.40;;;19.30;99.90;;;;;;5091055;28;20304;-70
2022/11/02 09:11:32;;;;;;;0.40;0.40;;;19.50;99.90;;;;;;5070820;28;20203;-69
2022/11/02 09:14:20;;;;;;;0.40;0.40;;;19.80;99.90;;;;;;5070799;28;20674;-69
2022/11/02 09:17:08;;;;;;;0.40;0.40;;;19.90;99.90;;;;;;5073715;28;20717;-65
2022/11/02 09:19:58;;;;;;;0.40;0.40;;;20.10;99.90;;;;;;5088396;28;20223;-64
2022/11/02 09:22:46;;;;;;;0.40;0.40;;;20.30;99.90;;;;;;5086715;28;20203;-64
2022/11/02 09:25:34;;;;;;;0.40;0.40;;;20.60;99.90;;;;;;5076276;28;20205;-64
2022/11/02 09:28:22;;;;;;;0.40;0.40;;;20.60;99.90;;;;;;5083610;28;20241;-64
2022/11/02 09:31:10;;;;;;;0.40;0.40;;;20.70;99.90;;;;;;5096296;28;20204;-64
2022/11/02 09:33:59;;;;;;;0.40;0.40;;;20.80;99.90;;;;;;5096478;28;20222;-64
2022/11/02 09:36:48;;;;;;;0.40;0.40;;;21.00;99.90;;;;;;5092497;28;20266;-68
2022/11/02 09:39:38;;;;;;;0.40;0.40;;;21.10;99.90;;;;;;5092179;28;20705;-67
2022/11/02 09:42:35;;;;;;;0.40;0.40;;;21.20;99.90;;;;;;5093872;28;20229;-64
2022/11/02 09:45:24;;;;;;;0.50;0.50;;;21.20;99.90;;;;;;5095249;28;20245;-63
2022/11/02 09:48:17;;;;;;;0.40;0.40;;;21.20;99.90;;;;;;5095168;28;20200;-63
2022/11/02 09:51:17;;;;;;;0.40;0.40;;;21.30;99.90;;;;;;5096433;28;20272;-63
2022/11/02 09:54:16;;;;;;;0.40;0.40;;;21.30;99.90;;;;;;5094398;28;20283;-62
2022/11/02 09:57:08;;;;;;;0.40;0.40;;;21.30;99.90;;;;;;5094413;28;20226;-63
2022/11/02 09:59:57;;;;;;;0.40;0.40;;;21.30;99.90;;;;;;5094851;28;20743;-64
2022/11/02 10:02:55;;;;;;;0.40;0.40;;;21.20;99.90;;;;;;5091497;28;20329;-63
2022/11/02 10:05:47;;;;;;;0.40;0.40;;;21.20;99.90;;;;;;5080733;28;20226;-64
2022/11/02 10:08:46;;;;;;;0.40;0.40;;;21.20;99.90;;;;;;5102077;28;20550;-65
2022/11/02 10:11:42;;;;;;;0.40;0.40;;;21.10;99.90;;;;;;5106338;28;20210;-63
2022/11/02 10:14:35;;;;;;;0.40;0.40;;;21.10;99.90;;;;;;5094030;28;20200;-63
2022/11/02 10:17:27;;;;;;;0.40;0.40;;;21.10;99.90;;;;;;5095669;28;20866;-63
2022/11/02 10:20:24;;;;;;;0.40;0.40;;;21.10;99.90;;;;;;5124871;27;20574;-64
2022/11/02 10:23:28;;;;;;;0.50;0.50;;;21.20;99.90;;;;;;5120283;27;20299;-64
2022/11/02 10:26:21;;;;;;;0.40;0.40;;;21.30;99.90;;;;;;5115252;28;20710;-64
2022/11/02 10:29:16;;;;;;;0.40;0.40;;;21.40;99.90;;;;;;5115256;28;20207;-63
2022/11/02 10:32:05;;;;;;;3.40;2.47;;;21.50;99.90;;;;;;5108841;28;20677;-64
2022/11/02 10:34:54;;;;;;;0.40;0.40;;;21.60;99.90;;;;;;5094474;28;20245;-62
2022/11/02 10:38:04;;;;;;;0.40;0.40;;;21.80;99.90;;;;;;5094515;28;20576;-64
2022/11/02 10:41:20;;;;;;;0.40;0.40;;;21.90;99.90;;;;;;5095015;28;20210;-63
2022/11/02 10:44:24;;;;;;;3.17;2.63;;;21.90;99.90;;;;;;5093999;28;20198;-67
2022/11/02 10:47:16;;;;;;;0.40;0.40;;;22.00;99.90;;;;;;5096600;28;20307;-64
2022/11/02 10:50:23;;;;;;;0.40;0.40;;;22.00;99.90;;;;;;5122067;27;20219;-63
2022/11/02 10:53:14;;;;;;;0.40;0.40;;;22.00;99.90;;;;;;5113756;28;20203;-64
2022/11/02 10:56:23;;;;;;;0.40;0.40;;;22.00;99.90;;;;;;5115262;28;20726;-63
2022/11/02 10:59:14;;;;;;;0.40;0.40;;;22.00;99.90;;;;;;5116716;27;20260;-63
2022/11/02 11:02:10;;;;;;;0.40;0.40;;;21.90;99.90;;;;;;5122029;27;20274;-64
2022/11/02 11:05:13;;;;;;;1.38;1.27;;;21.90;99.90;;;;;;5117671;27;20195;-64
2022/11/02 11:08:02;;;;;;;0.40;0.40;;;21.90;99.90;;;;;;5130812;27;20198;-64
2022/11/02 11:10:51;;;;;;;0.47;0.47;;;21.90;99.90;;;;;;5134111;27;20222;-66
2022/11/02 11:13:40;;;;;;;0.40;0.40;;;21.80;99.90;;;;;;5133574;27;20286;-63
2022/11/02 11:16:52;;;;;;;0.40;0.40;;;21.80;99.90;;;;;;5133758;27;20252;-63
2022/11/02 11:19:47;;;;;;;3.42;1.85;;;21.70;99.90;;;;;;5133921;27;20243;-64
2022/11/02 11:22:37;;;;;;;0.40;0.40;;;21.70;99.90;;;;;;5118796;27;20801;-63
2022/11/02 11:25:26;;;;;;;0.40;0.40;;;21.70;99.90;;;;;;5105351;28;20200;-63
2022/11/02 11:28:22;;;;;;;0.40;0.40;;;21.60;99.90;;;;;;5114359;28;20195;-63
2022/11/02 11:31:14;;;;;;;0.40;0.40;;;21.50;99.90;;;;;;5114811;28;20253;-63
2022/11/02 11:34:03;;;;;;;0.40;0.40;;;21.40;99.90;;;;;;5113879;28;20299;-63
2022/11/02 11:36:52;;;;;;;0.40;0.40;;;21.30;99.90;;;;;;5129401;27;20232;-64
2022/11/02 11:39:42;;;;;;;0.40;0.40;;;21.20;99.90;;;;;;5132366;27;20194;-64
2022/11/02 11:42:35;;;;;;;0.40;0.40;;;21.20;99.90;;;;;;5120580;27;20209;-63
2022/11/02 11:45:25;;;;;;;0.40;0.40;;;21.10;99.90;;;;;;5124159;27;20286;-64
2022/11/02 11:48:24;;;;;;;1.83;1.73;;;21.00;99.90;;;;;;5128151;27;20248;-64
2022/11/02 11:51:32;;;;;;;0.40;0.40;;;21.00;99.90;;;;;;5092388;28;20242;-64
2022/11/02 11:54:26;;;;;;;0.40;0.40;;;20.90;99.90;;;;;;5092729;28;20200;-62
2022/11/02 11:57:24;;;;;;;0.93;0.93;;;20.80;99.90;;;;;;5095758;28;20644;-63
2022/11/02 12:00:27;;;;;;;0.40;0.40;;;20.80;99.90;;;;;;5112004;28;20192;-63
2022/11/02 12:03:15;;;;;;;2.05;1.70;;;20.80;99.90;;;;;;5113109;28;20615;-62
2022/11/02 12:06:13;;;;;;;0.40;0.40;;;20.60;99.90;;;;;;5113691;28;20237;-63
2022/11/02 12:09:14;;;;;;;0.40;0.40;;;20.60;99.90;;;;;;5112324;28;20223;-63
2022/11/02 12:12:11;;;;;;;0.40;0.40;;;20.50;99.90;;;;;;5113288;28;20275;-64
2022/11/02 12:15:10;;;;;;;0.40;0.40;;;20.50;99.90;;;;;;5111972;28;20675;-64
2022/11/02 12:18:15;;;;;;;0.40;0.40;;;20.40;99.90;;;;;;5112773;28;20209;-63
2022/11/02 12:21:16;;;;;;;0.40;0.40;;;20.40;99.90;;;;;;5092848;28;20728;-63
2022/11/02 12:24:43;;;;;;;0.50;0.50;;;20.30;99.90;;;;;;5111917;27;20307;-63
2022/11/02 12:27:40;;;;;;;0.50;0.50;;;20.30;99.90;;;;;;5118968;27;20216;-63
2022/11/02 12:30:36;;;;;;;0.70;0.70;;;20.40;99.90;;;;;;5119876;27;20211;-62
2022/11/02 12:33:40;;;;;;;0.40;0.40;;;20.50;99.90;;;;;;5112660;28;20198;-64
2022/11/02 12:36:41;;;;;;;0.40;0.40;;;20.60;99.90;;;;;;5120697;27;21057;-63
2022/11/02 12:40:02;;;;;;;1.35;1.25;;;20.60;99.90;;;;;;5119801;27;20199;-63
2022/11/02 12:43:02;;;;;;;0.40;0.40;;;20.70;99.90;;;;;;5092611;28;20252;-63
2022/11/02 12:45:58;;;;;;;0.40;0.40;;;20.80;99.90;;;;;;5099868;28;20206;-61
2022/11/02 12:48:56;;;;;;;0.40;0.40;;;20.80;99.90;;;;;;5106709;28;20205;-68
2022/11/02 12:51:52;;;;;;;0.40;0.40;;;20.90;99.90;;;;;;5093105;28;20701;-61
2022/11/02 12:54:45;;;;;;;0.40;0.40;;;20.90;99.90;;;;;;5092120;28;20668;-63
2022/11/02 12:57:38;;;;;;;0.40;0.40;;;21.00;99.90;;;;;;5093068;28;20622;-62
2022/11/02 13:00:28;;;;;;;0.32;0.32;;;21.00;99.90;;;;;;5094922;28;20581;-61
2022/11/02 13:03:27;;;;;;;0.40;0.40;;;21.00;99.90;;;;;;5097644;28;20321;-61
2022/11/02 13:06:21;;;;;;;0.40;0.40;;;21.00;99.90;;;;;;5097033;28;20234;-63
2022/11/02 13:09:14;;;;;;;0.40;0.40;;;21.10;99.90;;;;;;5095745;28;20333;-62
2022/11/02 13:12:05;;;;;;;0.40;0.40;;;21.00;99.90;;;;;;5112176;28;20215;-62
2022/11/02 13:14:57;;;;;;;0.85;0.85;;;21.00;99.90;;;;;;5121954;27;20198;-63
2022/11/02 13:17:49;;;;;;;0.40;0.40;;;21.00;99.90;;;;;;5125680;27;20237;-62
2022/11/02 13:20:42;;;;;;;0.40;0.40;;;21.00;99.90;;;;;;5125958;27;20223;-61
2022/11/02 13:23:35;;;;;;;0.40;0.40;;;20.90;99.90;;;;;;5136748;27;20201;-63
2022/11/02 13:26:28;;;;;;;0.40;0.40;;;20.80;99.90;;;;;;5138496;27;20297;-63
2022/11/02 13:29:21;;;;;;;0.40;0.40;;;20.80;99.90;;;;;;5137802;27;20199;-62
2022/11/02 13:32:20;;;;;;;0.68;0.68;;;20.80;99.90;;;;;;5136156;27;20217;-62
2022/11/02 13:35:17;;;;;;;0.40;0.40;;;20.70;99.90;;;;;;5095359;28;20200;-61
2022/11/02 13:38:19;;;;;;;0.40;0.40;;;20.60;99.90;;;;;;5110881;27;20222;-62
2022/11/02 13:41:29;;;;;;;0.60;0.60;;;20.60;99.90;;;;;;5123909;27;20591;-62
2022/11/02 13:44:32;;;;;;;0.43;0.43;;;20.60;99.90;;;;;;5136306;27;20194;-61
2022/11/02 13:47:47;;;;;;;0.30;0.30;;;20.50;99.90;;;;;;5119034;27;20229;-61
2022/11/02 13:50:40;;;;;;;0.40;0.40;;;20.50;99.90;;;;;;5091371;28;20223;-61
2022/11/02 13:53:32;;;;;;;0.40;0.40;;;20.50;99.90;;;;;;5113072;28;20290;-62
2022/11/02 13:56:27;;;;;;;0.40;0.40;;;20.50;99.70;;;;;;5115691;28;20719;-62
2022/11/02 13:59:21;;;;;;;0.40;0.40;;;20.60;99.90;;;;;;5115711;28;20781;-63
2022/11/02 14:02:15;;;;;;;0.40;0.40;;;20.60;99.90;;;;;;5115880;28;20274;-62
2022/11/02 14:05:07;;;;;;;0.40;0.40;;;20.60;99.90;;;;;;5115581;28;20274;-61
2022/11/02 14:07:59;;;;;;;0.40;0.40;;;20.60;99.90;;;;;;5115618;28;20227;-59
2022/11/02 14:11:03;;;;;;;0.88;0.88;;;20.70;99.80;;;;;;5115253;28;20223;-61
2022/11/02 14:14:24;;;;;;;0.40;0.40;;;20.70;99.90;;;;;;5123514;27;20191;-60
2022/11/02 14:17:14;;;;;;;0.40;0.40;;;20.80;99.40;;;;;;5115330;28;20227;-61
2022/11/02 14:20:04;;;;;;;0.40;0.40;;;20.80;98.80;;;;;;5117391;27;20264;-61
2022/11/02 14:23:25;;;;;;;0.40;0.40;;;20.70;99.60;;;;;;5121060;27;20329;-61
2022/11/02 14:26:55;;;;;;;0.88;0.88;;;20.70;99.40;;;;;;5120462;27;20223;-64
2022/11/02 14:29:50;;;;;;;0.40;0.40;;;20.70;99.40;;;;;;5087192;27;20278;-62
2022/11/02 14:32:44;;;;;;;0.40;0.40;;;20.70;99.90;;;;;;5121863;27;20227;-61
2022/11/02 14:35:40;;;;;;;0.40;0.40;;;20.70;99.10;;;;;;5121036;27;20274;-61
2022/11/02 14:38:57;;;;;;;0.40;0.40;;;20.60;99.20;;;;;;5119389;27;20277;-61
2022/11/02 14:42:10;;;;;;;5.50;4.60;;;20.60;98.60;;;;;;5123414;27;20577;-61
2022/11/02 14:45:14;;;;;;;0.47;0.47;;;20.50;98.50;;;;;;5117904;27;20199;-63
2022/11/02 14:48:05;;;;;;;0.60;0.60;;;20.40;98.80;;;;;;5113338;28;20199;-61
2022/11/02 14:51:01;;;;;;;0.40;0.40;;;20.30;99.20;;;;;;5113919;28;20227;-62
2022/11/02 14:53:56;;;;;;;0.40;0.40;;;20.30;98.90;;;;;;5113753;28;20242;-63
2022/11/02 14:56:51;;;;;;;0.40;0.40;;;20.30;98.80;;;;;;5113321;28;20220;-62
2022/11/02 14:59:47;;;;;;;0.40;0.40;;;20.30;99.60;;;;;;5113288;28;20328;-63
2022/11/02 15:02:37;;;;;;;0.40;0.40;;;20.30;99.50;;;;;;5113946;28;20278;-63
2022/11/02 15:05:34;;;;;;;0.50;0.50;;;20.30;98.50;;;;;;5114186;28;20214;-63
2022/11/02 15:08:26;;;;;;;0.40;0.40;;;20.20;97.20;;;;;;5113216;28;20735;-63
2022/11/02 15:11:43;;;;;;;0.40;0.40;;;20.10;97.70;;;;;;5118758;27;20235;-62
2022/11/02 15:14:55;;;;;;;0.40;0.40;;;20.10;97.90;;;;;;5118541;27;20274;-65
2022/11/02 15:18:15;;;;;;;0.40;0.40;;;20.10;97.80;;;;;;5121163;27;20599;-62